Mary Alice II — WDE3827 — position and weather

sailwx.info

Track history (hours):
 
Tides and Currents Weather Stations Pressure Air Temp Water Temp Dewpoint Dewpoint Depression Visibility Wind Speed Wind Dir Waves Ship Positions

Mary Alice II

Owner: Lakeshore Drive Investment, Rollins, MT. More information available from US FCC via Universal Licensing System and Coast Guard Vessel Documentation Center.

Last reported at 2017-Sep-21 13:54 UTC. Time now 2017-Sep-21 14:30 UTC.
Position N 47°15' W 122°26'.

Length 40 m; draft 2.2 m.

Type: Pleasure craft. MMSI: 367344710.

Date/timePositionNaut miles runAvg speedWind from/ knotsBaromVisibWave heightAir tempDewpointWater temp
2017-Sep-21 13:54N 47°15' W 122°26'0 0.1
2017-Sep-21 13:27N 47°15' W 122°26'0 0.1
2017-Sep-21 12:51N 47°15' W 122°26'0 0.1
2017-Sep-21 12:21N 47°15' W 122°26'0 0.1
2017-Sep-21 11:57N 47°15' W 122°26'0 0.0
2017-Sep-21 11:21N 47°15' W 122°26'0 0.0
2017-Sep-21 10:51N 47°15' W 122°26'0 0.0
2017-Sep-21 10:30N 47°15' W 122°26'0 0.0
2017-Sep-21 09:57N 47°15' W 122°26'1 1.5
2017-Sep-21 09:31N 47°15' W 122°26'5 9.2
2017-Sep-21 09:00N 47°20' W 122°28'611.8
2017-Sep-21 08:30N 47°25' W 122°23'713.3
2017-Sep-21 08:01N 47°31' W 122°26'713.5
2017-Sep-21 07:30N 47°38' W 122°28'713.1
2017-Sep-21 07:00N 47°44' W 122°27'713.1
2017-Sep-21 06:30N 47°51' W 122°28'612.8
2017-Sep-21 06:01N 47°56' W 122°32'711.6
2017-Sep-21 05:25N 48°02' W 122°39'1810.7
2017-Sep-21 03:43N 48°19' W 122°47'314.3
2017-Sep-21 03:30N 48°22' W 122°46'714.5
2017-Sep-21 03:00N 48°29' W 122°43'714.2
2017-Sep-21 02:31N 48°36' W 122°40'713.3
2017-Sep-21 02:00N 48°39' W 122°31'0 0.8
2017-Sep-21 01:30N 48°39' W 122°31'0 0.1
2017-Sep-21 01:00N 48°39' W 122°30'0 0.0
2017-Sep-21 00:30N 48°39' W 122°30'0 0.0
2017-Sep-21 00:00N 48°39' W 122°30'0 0.0
2017-Sep-20 23:25N 48°39' W 122°30'1 1.4
2017-Sep-20 23:00N 48°39' W 122°30'0 0.0
2017-Sep-20 22:30N 48°39' W 122°30'0 0.0
2017-Sep-20 21:59N 48°39' W 122°30'0 0.8
2017-Sep-20 21:30N 48°39' W 122°30'3 5.3
2017-Sep-20 21:00N 48°38' W 122°34'3 5.6
2017-Sep-20 20:30N 48°37' W 122°38'3 5.2
2017-Sep-20 20:00N 48°37' W 122°42'3 5.0
2017-Sep-20 19:30N 48°36' W 122°46'3 5.8
2017-Sep-20 19:00N 48°35' W 122°50'3 5.1
2017-Sep-20 18:30N 48°35' W 122°53'1 2.5
2017-Sep-20 18:00N 48°34' W 122°55'2 4.9
2017-Sep-20 17:30N 48°32' W 122°58'2 3.7
2017-Sep-20 17:00N 48°32' W 123°01'0 0.2
2017-Sep-20 16:29N 48°32' W 123°01'0 0.0
2017-Sep-20 15:50N 48°32' W 123°01'0 0.0
2017-Sep-20 15:29N 48°32' W 123°01'0 0.0
2017-Sep-20 14:59N 48°32' W 123°01'0 0.0
2017-Sep-20 13:59N 48°32' W 123°01'0 0.0
2017-Sep-20 13:29N 48°32' W 123°01'0 0.0
2017-Sep-20 12:59N 48°32' W 123°01'0 0.0
2017-Sep-20 12:26N 48°32' W 123°01'0 0.0
2017-Sep-20 11:56N 48°32' W 123°01'0 0.0
2017-Sep-20 11:29N 48°32' W 123°01'0 0.0
2017-Sep-20 10:56N 48°32' W 123°01'0 0.0
2017-Sep-20 10:26N 48°32' W 123°01'0 0.0
2017-Sep-20 09:59N 48°32' W 123°01'0 0.0
2017-Sep-20 09:29N 48°32' W 123°01'0 0.0
2017-Sep-20 08:59N 48°32' W 123°01'0 0.0
2017-Sep-20 08:29N 48°32' W 123°01'0 0.0
2017-Sep-20 07:59N 48°32' W 123°01'0 0.0
2017-Sep-20 07:29N 48°32' W 123°01'0 0.0
2017-Sep-20 06:59N 48°32' W 123°01'0 0.0
2017-Sep-20 06:29N 48°32' W 123°01'0 0.0
2017-Sep-20 05:56N 48°32' W 123°01'0 0.0
2017-Sep-20 05:29N 48°32' W 123°01'0 0.0
2017-Sep-20 04:59N 48°32' W 123°01'0 0.0
2017-Sep-20 04:29N 48°32' W 123°01'0 0.0
2017-Sep-20 03:59N 48°32' W 123°01'0 0.0
2017-Sep-20 03:30N 48°32' W 123°01'3 6.2
2017-Sep-20 03:00N 48°35' W 123°00'0 0.3
2017-Sep-20 02:23N 48°35' W 123°00'0 0.0
2017-Sep-20 01:41N 48°35' W 123°00'0 0.0
2017-Sep-20 01:23N 48°35' W 123°00'0 0.0
2017-Sep-20 00:41N 48°35' W 123°00'0 0.0
2017-Sep-20 00:14N 48°35' W 123°00'0 0.0
2017-Sep-19 22:50N 48°35' W 123°00'0 0.1
2017-Sep-19 22:07N 48°35' W 123°00'0 0.1
2017-Sep-19 22:00N 48°35' W 123°00'0 0.0
2017-Sep-19 21:30N 48°35' W 123°00'0 0.1
2017-Sep-19 21:00N 48°35' W 123°00'0 0.0
2017-Sep-19 20:30N 48°35' W 123°00'1 2.0
2017-Sep-19 20:00N 48°34' W 123°01'2 5.0
2017-Sep-19 19:30N 48°32' W 122°59'0 0.3
2017-Sep-19 18:58N 48°32' W 122°59'0 0.8
2017-Sep-19 18:30N 48°32' W 122°59'1 2.4
2017-Sep-19 18:00N 48°32' W 123°01'0 0.0
2017-Sep-19 17:29N 48°32' W 123°01'0 0.0
2017-Sep-19 16:59N 48°32' W 123°01'0 0.0
2017-Sep-19 16:29N 48°32' W 123°01'0 0.0
2017-Sep-19 15:59N 48°32' W 123°01'0 0.0
2017-Sep-19 15:29N 48°32' W 123°01'0 0.0
2017-Sep-19 14:59N 48°32' W 123°01'0 0.0
2017-Sep-19 14:26N 48°32' W 123°01'0 0.0
2017-Sep-19 13:59N 48°32' W 123°01'0 0.0
2017-Sep-19 13:26N 48°32' W 123°01'0 0.0
2017-Sep-19 12:59N 48°32' W 123°01'0 0.0
2017-Sep-19 12:29N 48°32' W 123°01'0 0.0
2017-Sep-19 11:56N 48°32' W 123°01'0 0.0
2017-Sep-19 11:29N 48°32' W 123°01'0 0.0
2017-Sep-19 10:59N 48°32' W 123°01'0 0.0
2017-Sep-19 10:29N 48°32' W 123°01'0 0.0
2017-Sep-19 09:59N 48°32' W 123°01'0 0.0
2017-Sep-19 09:29N 48°32' W 123°01'0 0.0
2017-Sep-19 08:53N 48°32' W 123°01'0 0.0
2017-Sep-19 08:29N 48°32' W 123°01'0 0.0
2017-Sep-19 07:59N 48°32' W 123°01'0 0.0
2017-Sep-19 07:29N 48°32' W 123°01'0 0.0
2017-Sep-19 06:59N 48°32' W 123°01'0 0.0
2017-Sep-19 06:29N 48°32' W 123°01'0 0.0
2017-Sep-19 05:59N 48°32' W 123°01'0 0.0
2017-Sep-18 18:10N 48°32' W 123°01'1 5.3
2017-Sep-18 18:00N 48°33' W 122°59'4 8.0
2017-Sep-18 17:30N 48°29' W 122°58'3013.4
2017-Sep-18 15:17N 48°02' W 122°38'516.6
2017-Sep-18 15:00N 47°58' W 122°34'714.0
2017-Sep-18 14:31N 47°53' W 122°28'713.8
2017-Sep-18 14:01N 47°46' W 122°26'510.1
2017-Sep-18 13:31N 47°41' W 122°24'0 0.1
2017-Sep-18 12:58N 47°41' W 122°24'0 0.0
2017-Sep-18 12:28N 47°41' W 122°24'0 0.0
2017-Sep-18 11:58N 47°41' W 122°24'0 0.0
2017-Sep-18 11:28N 47°41' W 122°24'0 0.0
2017-Sep-18 10:58N 47°41' W 122°24'0 0.0
2017-Sep-18 10:28N 47°41' W 122°24'0 0.0
2017-Sep-18 09:58N 47°41' W 122°24'0 0.0
2017-Sep-18 09:28N 47°41' W 122°24'0 0.0
2017-Sep-18 08:58N 47°41' W 122°24'0 0.0
2017-Sep-18 08:28N 47°41' W 122°24'0 0.0
2017-Sep-18 07:58N 47°41' W 122°24'0 0.0
2017-Sep-18 07:28N 47°41' W 122°24'0 0.0
2017-Sep-18 06:58N 47°41' W 122°24'0 0.0
2017-Sep-18 06:28N 47°41' W 122°24'0 0.0
2017-Sep-18 05:58N 47°41' W 122°24'0 0.0
2017-Sep-18 05:28N 47°41' W 122°24'0 0.0
2017-Sep-18 04:58N 47°41' W 122°24'0 0.0
2017-Sep-18 04:28N 47°41' W 122°24'0 0.0
2017-Sep-18 03:58N 47°41' W 122°24'0 0.0
2017-Sep-18 03:28N 47°41' W 122°24'0 0.0
2017-Sep-18 02:58N 47°41' W 122°24'0 0.0
2017-Sep-18 02:28N 47°41' W 122°24'0 0.0
2017-Sep-18 01:58N 47°41' W 122°24'0 0.0
2017-Sep-18 01:28N 47°41' W 122°24'0 0.0
2017-Sep-18 00:58N 47°41' W 122°24'0 0.0
2017-Sep-18 00:28N 47°41' W 122°24'0 0.0
2017-Sep-17 23:58N 47°41' W 122°24'0 0.0
2017-Sep-17 23:28N 47°41' W 122°24'0 0.0
2017-Sep-17 22:58N 47°41' W 122°24'0 0.0
2017-Sep-17 22:28N 47°41' W 122°24'0 0.0
2017-Sep-17 21:58N 47°41' W 122°24'0 0.0
2017-Sep-17 21:29N 47°41' W 122°24'0 0.0
2017-Sep-17 20:58N 47°41' W 122°24'0 0.0
2017-Sep-17 20:28N 47°41' W 122°24'0 0.0
2017-Sep-17 19:58N 47°41' W 122°24'0 0.0
2017-Sep-17 19:28N 47°41' W 122°24'0 0.0
2017-Sep-17 18:58N 47°41' W 122°24'0 0.0
2017-Sep-17 18:28N 47°41' W 122°24'0 0.0
2017-Sep-17 17:58N 47°41' W 122°24'0 0.0
2017-Sep-17 17:28N 47°41' W 122°24'0 0.0
2017-Sep-17 16:58N 47°41' W 122°24'0 0.0
2017-Sep-17 16:28N 47°41' W 122°24'0 0.0
2017-Sep-17 15:58N 47°41' W 122°24'0 0.0
2017-Sep-17 15:28N 47°41' W 122°24'0 0.0
2017-Sep-17 14:58N 47°41' W 122°24'0 0.0
2017-Sep-17 14:28N 47°41' W 122°24'0 0.0
2017-Sep-17 13:58N 47°41' W 122°24'0 0.0
2017-Sep-17 13:28N 47°41' W 122°24'0 0.0
2017-Sep-17 12:58N 47°41' W 122°24'0 0.0
2017-Sep-17 12:28N 47°41' W 122°24'0 0.0
2017-Sep-17 11:58N 47°41' W 122°24'0 0.0
2017-Sep-17 11:28N 47°41' W 122°24'0 0.0
2017-Sep-17 10:58N 47°41' W 122°24'0 0.0
2017-Sep-17 10:28N 47°41' W 122°24'0 0.0
2017-Sep-17 09:58N 47°41' W 122°24'0 0.0
2017-Sep-17 09:28N 47°41' W 122°24'0 0.0
2017-Sep-17 08:58N 47°41' W 122°24'0 0.0
2017-Sep-17 08:28N 47°41' W 122°24'0 0.0
2017-Sep-17 07:58N 47°41' W 122°24'0 0.0
2017-Sep-17 07:28N 47°41' W 122°24'0 0.0
2017-Sep-17 06:58N 47°41' W 122°24'0 0.0
2017-Sep-17 06:29N 47°41' W 122°24'0 0.0
2017-Sep-17 05:58N 47°41' W 122°24'0 0.0
2017-Sep-17 05:28N 47°41' W 122°24'0 0.0
2017-Sep-17 04:58N 47°41' W 122°24'0 0.0
2017-Sep-17 04:28N 47°41' W 122°24'0 0.0
2017-Sep-17 03:58N 47°41' W 122°24'0 0.0
2017-Sep-17 03:28N 47°41' W 122°24'0 0.0
2017-Sep-17 02:58N 47°41' W 122°24'0 0.0
2017-Sep-17 02:28N 47°41' W 122°24'0 0.0
2017-Sep-17 01:58N 47°41' W 122°24'0 0.0
2017-Sep-17 01:28N 47°41' W 122°24'0 0.0
2017-Sep-17 00:58N 47°41' W 122°24'0 0.0
2017-Sep-17 00:28N 47°41' W 122°24'0 0.0
2017-Sep-16 23:58N 47°41' W 122°24'0 0.0
2017-Sep-16 23:28N 47°41' W 122°24'0 0.0
2017-Sep-16 22:58N 47°41' W 122°24'0 0.0
2017-Sep-16 22:28N 47°41' W 122°24'0 0.0
2017-Sep-16 21:58N 47°41' W 122°24'0 0.0
2017-Sep-16 21:28N 47°41' W 122°24'0 0.0
2017-Sep-16 20:58N 47°41' W 122°24'0 0.0
2017-Sep-16 20:28N 47°41' W 122°24'0 0.0
2017-Sep-16 19:58N 47°41' W 122°24'0 0.0
2017-Sep-16 19:28N 47°41' W 122°24'0 0.0
2017-Sep-16 18:55N 47°41' W 122°24'0 0.0
2017-Sep-16 18:28N 47°41' W 122°24'0 0.0
2017-Sep-16 17:58N 47°41' W 122°24'0 0.0
2017-Sep-16 17:28N 47°41' W 122°24'0 0.0
2017-Sep-16 16:58N 47°41' W 122°24'0 0.0
2017-Sep-16 16:28N 47°41' W 122°24'0 0.1
2017-Sep-16 15:58N 47°41' W 122°24'0 0.1
2017-Sep-16 15:28N 47°41' W 122°24'0 0.0
2017-Sep-16 14:58N 47°41' W 122°24'0 0.0
2017-Sep-16 14:28N 47°41' W 122°24'0 0.0
2017-Sep-16 13:58N 47°41' W 122°24'0 0.0
2017-Sep-16 13:28N 47°41' W 122°24'0 0.0
2017-Sep-16 12:58N 47°41' W 122°24'0 0.0
2017-Sep-16 12:28N 47°41' W 122°24'0 0.0
2017-Sep-16 11:55N 47°41' W 122°24'0 0.0
2017-Sep-16 11:28N 47°41' W 122°24'0 0.0
2017-Sep-16 10:58N 47°41' W 122°24'0 0.0
2017-Sep-16 10:28N 47°41' W 122°24'0 0.0
2017-Sep-16 09:58N 47°41' W 122°24'0 0.0
2017-Sep-16 09:28N 47°41' W 122°24'0 0.0
2017-Sep-16 08:58N 47°41' W 122°24'0 0.0
2017-Sep-16 08:28N 47°41' W 122°24'0 0.0
2017-Sep-16 07:58N 47°41' W 122°24'0 0.0
2017-Sep-16 07:28N 47°41' W 122°24'0 0.0
2017-Sep-16 06:58N 47°41' W 122°24'0 0.0
2017-Sep-16 06:28N 47°41' W 122°24'0 0.0
2017-Sep-16 05:58N 47°41' W 122°24'0 0.0
2017-Sep-16 05:28N 47°41' W 122°24'0 0.0
2017-Sep-16 04:58N 47°41' W 122°24'0 0.0
2017-Sep-16 04:28N 47°41' W 122°24'0 0.0
2017-Sep-16 03:58N 47°41' W 122°24'0 0.0
2017-Sep-16 03:28N 47°41' W 122°24'0 0.0
2017-Sep-16 02:58N 47°41' W 122°24'0 0.0
2017-Sep-16 02:28N 47°41' W 122°24'0 0.0
2017-Sep-16 01:58N 47°41' W 122°24'0 0.0
2017-Sep-16 01:28N 47°41' W 122°24'0 0.0
2017-Sep-16 00:52N 47°41' W 122°24'0 0.0
2017-Sep-16 00:28N 47°41' W 122°24'0 0.0
2017-Sep-15 23:58N 47°41' W 122°24'0 0.0
2017-Sep-15 23:28N 47°41' W 122°24'0 0.0
2017-Sep-15 22:58N 47°41' W 122°24'0 0.0
2017-Sep-15 22:28N 47°41' W 122°24'0 0.0
2017-Sep-15 21:58N 47°41' W 122°24'0 0.0
2017-Sep-15 21:28N 47°41' W 122°24'0 0.1
2017-Sep-15 20:58N 47°41' W 122°24'0 0.0
2017-Sep-15 20:28N 47°41' W 122°24'0 0.0
2017-Sep-15 19:58N 47°41' W 122°24'0 0.0
2017-Sep-15 19:28N 47°41' W 122°24'0 0.0
2017-Sep-15 18:58N 47°41' W 122°24'0 0.0
2017-Sep-15 18:28N 47°41' W 122°24'0 0.0
2017-Sep-15 17:58N 47°41' W 122°24'0 0.0
2017-Sep-15 17:25N 47°41' W 122°24'0 0.0
2017-Sep-15 16:58N 47°41' W 122°24'0 0.0
2017-Sep-15 16:28N 47°41' W 122°24'0 0.0
2017-Sep-15 15:58N 47°41' W 122°24'0 0.0
2017-Sep-15 15:28N 47°41' W 122°24'0 0.0
2017-Sep-15 14:58N 47°41' W 122°24'0 0.1
2017-Sep-15 14:28N 47°41' W 122°24'0 0.0
2017-Sep-15 13:58N 47°41' W 122°24'0 0.0
2017-Sep-15 13:28N 47°41' W 122°24'0 0.0
2017-Sep-15 12:58N 47°41' W 122°24'0 0.0
2017-Sep-15 12:28N 47°41' W 122°24'0 0.0
2017-Sep-15 11:58N 47°41' W 122°24'0 0.0
2017-Sep-15 11:28N 47°41' W 122°24'0 0.0
2017-Sep-15 10:58N 47°41' W 122°24'0 0.0
2017-Sep-15 10:28N 47°41' W 122°24'0 0.0
2017-Sep-15 09:58N 47°41' W 122°24'0 0.0
2017-Sep-15 09:28N 47°41' W 122°24'0 0.0
2017-Sep-15 08:58N 47°41' W 122°24'0 0.0
2017-Sep-15 08:28N 47°41' W 122°24'0 0.0
2017-Sep-15 07:58N 47°41' W 122°24'0 0.0
2017-Sep-15 07:28N 47°41' W 122°24'0 0.0
2017-Sep-15 06:58N 47°41' W 122°24'0 0.0
2017-Sep-15 06:28N 47°41' W 122°24'0 0.0
2017-Sep-15 05:58N 47°41' W 122°24'0 0.0
2017-Sep-15 05:28N 47°41' W 122°24'0 0.0
2017-Sep-15 04:58N 47°41' W 122°24'0 0.0
2017-Sep-15 04:28N 47°41' W 122°24'0 0.0
2017-Sep-15 03:58N 47°41' W 122°24'0 0.0
2017-Sep-15 03:28N 47°41' W 122°24'0 0.0
2017-Sep-15 02:58N 47°41' W 122°24'0 0.0
2017-Sep-15 02:28N 47°41' W 122°24'0 0.0
2017-Sep-15 01:58N 47°41' W 122°24'0 0.0
2017-Sep-15 01:28N 47°41' W 122°24'0 0.0
2017-Sep-15 00:58N 47°41' W 122°24'0 0.0
2017-Sep-15 00:28N 47°41' W 122°24'0 0.0
2017-Sep-14 23:58N 47°41' W 122°24'0 0.0
2017-Sep-14 23:28N 47°41' W 122°24'0 0.0
2017-Sep-14 22:58N 47°41' W 122°24'0 0.0
2017-Sep-14 22:28N 47°41' W 122°24'0 0.0
2017-Sep-14 17:58N 47°41' W 122°24'0 0.0
2017-Sep-14 17:22N 47°41' W 122°24'0 0.0
2017-Sep-14 16:58N 47°41' W 122°24'0 0.0
2017-Sep-14 16:28N 47°41' W 122°24'0 0.0
2017-Sep-14 15:58N 47°41' W 122°24'0 0.0
2017-Sep-14 15:28N 47°41' W 122°24'0 0.0
2017-Sep-14 14:58N 47°41' W 122°24'0 0.0
2017-Sep-14 14:28N 47°41' W 122°24'0 0.0
2017-Sep-14 13:58N 47°41' W 122°24'0 0.0
2017-Sep-14 13:28N 47°41' W 122°24'0 0.0
2017-Sep-14 12:58N 47°41' W 122°24'0 0.0
2017-Sep-14 12:28N 47°41' W 122°24'0 0.0
2017-Sep-14 11:58N 47°41' W 122°24'0 0.0
2017-Sep-14 11:28N 47°41' W 122°24'0 0.0
2017-Sep-14 10:55N 47°41' W 122°24'0 0.0
2017-Sep-14 10:28N 47°41' W 122°24'0 0.0
2017-Sep-14 09:58N 47°41' W 122°24'0 0.0
2017-Sep-14 09:28N 47°41' W 122°24'0 0.0
2017-Sep-14 08:58N 47°41' W 122°24'0 0.0
2017-Sep-14 08:28N 47°41' W 122°24'0 0.0
2017-Sep-14 07:58N 47°41' W 122°24'0 0.0
2017-Sep-14 07:28N 47°41' W 122°24'0 0.0
2017-Sep-14 06:58N 47°41' W 122°24'0 0.0
2017-Sep-14 06:28N 47°41' W 122°24'0 0.0
2017-Sep-14 05:58N 47°41' W 122°24'0 0.0
2017-Sep-14 05:28N 47°41' W 122°24'0 0.0
2017-Sep-14 04:58N 47°41' W 122°24'0 0.0
2017-Sep-14 04:28N 47°41' W 122°24'0 0.0
2017-Sep-14 03:58N 47°41' W 122°24'0 0.0
2017-Sep-14 03:28N 47°41' W 122°24'0 0.0
2017-Sep-14 02:58N 47°41' W 122°24'0 0.0
2017-Sep-14 02:28N 47°41' W 122°24'0 0.0
2017-Sep-14 01:58N 47°41' W 122°24'0 0.0
2017-Sep-14 01:25N 47°41' W 122°24'0 0.0
2017-Sep-14 00:58N 47°41' W 122°24'0 0.1
2017-Sep-14 00:28N 47°41' W 122°24'0 0.1
2017-Sep-13 23:58N 47°41' W 122°24'0 0.0
2017-Sep-13 23:28N 47°41' W 122°24'0 0.0
2017-Sep-13 22:58N 47°41' W 122°24'0 0.0
2017-Sep-13 22:28N 47°41' W 122°24'0 0.0
2017-Sep-13 21:58N 47°41' W 122°24'0 0.0
2017-Sep-13 21:28N 47°41' W 122°24'0 0.0
2017-Sep-13 20:58N 47°41' W 122°24'0 0.0
2017-Sep-13 20:28N 47°41' W 122°24'0 0.0
2017-Sep-13 19:58N 47°41' W 122°24'0 0.0
2017-Sep-13 19:28N 47°41' W 122°24'0 0.0
2017-Sep-13 18:52N 47°41' W 122°24'0 0.0
2017-Sep-13 18:28N 47°41' W 122°24'0 0.0
2017-Sep-13 17:58N 47°41' W 122°24'0 0.0
2017-Sep-13 17:25N 47°41' W 122°24'0 0.0
2017-Sep-13 16:58N 47°41' W 122°24'0 0.0
2017-Sep-13 16:28N 47°41' W 122°24'0 0.0
2017-Sep-13 15:58N 47°41' W 122°24'0 0.0
2017-Sep-13 15:28N 47°41' W 122°24'0 0.0
2017-Sep-13 14:58N 47°41' W 122°24'0 0.0
2017-Sep-13 14:28N 47°41' W 122°24'0 0.0
2017-Sep-13 13:58N 47°41' W 122°24'0 0.0
2017-Sep-13 13:28N 47°41' W 122°24'0 0.0
2017-Sep-13 12:58N 47°41' W 122°24'0 0.0
2017-Sep-13 12:28N 47°41' W 122°24'0 0.0
2017-Sep-13 11:58N 47°41' W 122°24'0 0.0
2017-Sep-13 11:28N 47°41' W 122°24'0 0.0
2017-Sep-13 10:58N 47°41' W 122°24'0 0.0
2017-Sep-13 10:28N 47°41' W 122°24'0 0.0
2017-Sep-13 09:58N 47°41' W 122°24'0 0.0
2017-Sep-13 09:28N 47°41' W 122°24'0 0.0
2017-Sep-13 08:58N 47°41' W 122°24'0 0.0
2017-Sep-13 08:28N 47°41' W 122°24'0 0.0
2017-Sep-13 07:58N 47°41' W 122°24'0 0.0
2017-Sep-13 07:28N 47°41' W 122°24'0 0.0
2017-Sep-13 06:58N 47°41' W 122°24'0 0.0
2017-Sep-13 06:28N 47°41' W 122°24'0 0.0
2017-Sep-13 05:58N 47°41' W 122°24'0 0.0
2017-Sep-13 05:28N 47°41' W 122°24'0 0.0
2017-Sep-13 04:58N 47°41' W 122°24'0 0.0
2017-Sep-13 04:25N 47°41' W 122°24'0 0.0
2017-Sep-13 03:58N 47°41' W 122°24'0 0.0
2017-Sep-13 03:28N 47°41' W 122°24'0 0.0
2017-Sep-13 02:58N 47°41' W 122°24'0 0.0
2017-Sep-13 02:28N 47°41' W 122°24'0 0.0
2017-Sep-13 01:58N 47°41' W 122°24'0 0.0
2017-Sep-13 01:28N 47°41' W 122°24'0 0.0
2017-Sep-13 00:58N 47°41' W 122°24'0 0.0
2017-Sep-13 00:28N 47°41' W 122°24'0 0.0
2017-Sep-12 23:58N 47°41' W 122°24'0 0.0
2017-Sep-12 23:28N 47°41' W 122°24'0 0.0
2017-Sep-12 22:58N 47°41' W 122°24'0 0.0
2017-Sep-12 22:28N 47°41' W 122°24'0 0.0
2017-Sep-12 21:58N 47°41' W 122°24'0 0.0
2017-Sep-12 21:28N 47°41' W 122°24'0 0.0
2017-Sep-12 20:58N 47°41' W 122°24'0 0.0
2017-Sep-12 20:28N 47°41' W 122°24'0 0.0
2017-Sep-12 19:58N 47°41' W 122°24'0 0.0
2017-Sep-12 19:28N 47°41' W 122°24'0 0.0
2017-Sep-12 18:58N 47°41' W 122°24'0 0.0
2017-Sep-12 18:28N 47°41' W 122°24'0 0.0
2017-Sep-12 17:58N 47°41' W 122°24'0 0.0
2017-Sep-12 17:25N 47°41' W 122°24'0 0.0
2017-Sep-12 16:55N 47°41' W 122°24'0 0.0
2017-Sep-12 16:28N 47°41' W 122°24'0 0.0
2017-Sep-12 15:58N 47°41' W 122°24'0 0.0
2017-Sep-12 15:28N 47°41' W 122°24'0 0.0
2017-Sep-12 14:58N 47°41' W 122°24'0 0.0
2017-Sep-12 14:28N 47°41' W 122°24'0 0.0
2017-Sep-12 13:58N 47°41' W 122°24'0 0.0
2017-Sep-12 13:28N 47°41' W 122°24'0 0.0
2017-Sep-12 12:58N 47°41' W 122°24'0 0.0
2017-Sep-12 12:28N 47°41' W 122°24'0 0.0
2017-Sep-12 11:58N 47°41' W 122°24'0 0.0
2017-Sep-12 11:28N 47°41' W 122°24'0 0.0
2017-Sep-12 10:58N 47°41' W 122°24'0 0.0
2017-Sep-12 10:28N 47°41' W 122°24'0 0.0
2017-Sep-12 09:58N 47°41' W 122°24'0 0.0
2017-Sep-12 09:28N 47°41' W 122°24'0 0.0
2017-Sep-12 08:58N 47°41' W 122°24'0 0.0
2017-Sep-12 08:28N 47°41' W 122°24'0 0.0
2017-Sep-12 07:58N 47°41' W 122°24'0 0.0
2017-Sep-12 07:28N 47°41' W 122°24'0 0.0
2017-Sep-12 06:58N 47°41' W 122°24'0 0.0
2017-Sep-12 06:25N 47°41' W 122°24'0 0.0
2017-Sep-12 05:58N 47°41' W 122°24'0 0.0
2017-Sep-12 05:28N 47°41' W 122°24'0 0.0
2017-Sep-12 04:58N 47°41' W 122°24'0 0.0
2017-Sep-12 04:28N 47°41' W 122°24'0 0.0
2017-Sep-12 03:55N 47°41' W 122°24'0 0.0
2017-Sep-12 03:28N 47°41' W 122°24'0 0.0
2017-Sep-12 02:58N 47°41' W 122°24'0 0.0
2017-Sep-12 02:28N 47°41' W 122°24'0 0.0
2017-Sep-12 01:58N 47°41' W 122°24'0 0.0
2017-Sep-12 01:28N 47°41' W 122°24'0 0.1
2017-Sep-12 00:58N 47°41' W 122°24'0 0.1
2017-Sep-12 00:28N 47°41' W 122°24'0 0.0
2017-Sep-11 23:58N 47°41' W 122°24'0 0.0
2017-Sep-11 23:28N 47°41' W 122°24'0 0.0
2017-Sep-11 22:58N 47°41' W 122°24'0 0.0
2017-Sep-11 22:28N 47°41' W 122°24'0 0.0
2017-Sep-11 21:58N 47°41' W 122°24'0 0.0
2017-Sep-11 21:28N 47°41' W 122°24'0 0.0
2017-Sep-11 20:58N 47°41' W 122°24'0 0.0
2017-Sep-11 20:28N 47°41' W 122°24'0 0.0
2017-Sep-11 19:58N 47°41' W 122°24'0 0.0
2017-Sep-11 19:28N 47°41' W 122°24'0 0.0
2017-Sep-11 18:58N 47°41' W 122°24'0 0.0
2017-Sep-11 18:28N 47°41' W 122°24'0 0.0
2017-Sep-11 17:58N 47°41' W 122°24'0 0.0
2017-Sep-11 17:28N 47°41' W 122°24'0 0.0
2017-Sep-11 16:58N 47°41' W 122°24'0 0.0
2017-Sep-11 16:28N 47°41' W 122°24'0 0.0
2017-Sep-11 15:58N 47°41' W 122°24'0 0.0
2017-Sep-11 15:28N 47°41' W 122°24'0 0.0
2017-Sep-11 14:58N 47°41' W 122°24'0 0.0
2017-Sep-11 14:28N 47°41' W 122°24'0 0.0
2017-Sep-11 13:58N 47°41' W 122°24'  
Track history (hours):
 
Tides and Currents Weather Stations Pressure Air Temp Water Temp Dewpoint Dewpoint Depression Visibility Wind Speed Wind Dir Waves Ship Positions

Mary Alice II

Owner: Lakeshore Drive Investment, Rollins, MT. More information available from US FCC via Universal Licensing System and Coast Guard Vessel Documentation Center.

Last reported at 2017-Sep-21 13:54 UTC. Time now 2017-Sep-21 14:30 UTC.
Position N 47°15' W 122°26'.

Length 40 m; draft 2.2 m.

Type: Pleasure craft. MMSI: 367344710.

Date/timePositionNaut miles runAvg speedWind from/ knotsBaromVisibWave heightAir tempDewpointWater temp
2017-Sep-21 13:54N 47°15' W 122°26'0 0.1
2017-Sep-21 13:27N 47°15' W 122°26'0 0.1
2017-Sep-21 12:51N 47°15' W 122°26'0 0.1
2017-Sep-21 12:21N 47°15' W 122°26'0 0.1
2017-Sep-21 11:57N 47°15' W 122°26'0 0.0
2017-Sep-21 11:21N 47°15' W 122°26'0 0.0
2017-Sep-21 10:51N 47°15' W 122°26'0 0.0
2017-Sep-21 10:30N 47°15' W 122°26'0 0.0
2017-Sep-21 09:57N 47°15' W 122°26'1 1.5
2017-Sep-21 09:31N 47°15' W 122°26'5 9.2
2017-Sep-21 09:00N 47°20' W 122°28'611.8
2017-Sep-21 08:30N 47°25' W 122°23'713.3
2017-Sep-21 08:01N 47°31' W 122°26'713.5
2017-Sep-21 07:30N 47°38' W 122°28'713.1
2017-Sep-21 07:00N 47°44' W 122°27'713.1
2017-Sep-21 06:30N 47°51' W 122°28'612.8
2017-Sep-21 06:01N 47°56' W 122°32'711.6
2017-Sep-21 05:25N 48°02' W 122°39'1810.7
2017-Sep-21 03:43N 48°19' W 122°47'314.3
2017-Sep-21 03:30N 48°22' W 122°46'714.5
2017-Sep-21 03:00N 48°29' W 122°43'714.2
2017-Sep-21 02:31N 48°36' W 122°40'713.3
2017-Sep-21 02:00N 48°39' W 122°31'0 0.8
2017-Sep-21 01:30N 48°39' W 122°31'0 0.1
2017-Sep-21 01:00N 48°39' W 122°30'0 0.0
2017-Sep-21 00:30N 48°39' W 122°30'0 0.0
2017-Sep-21 00:00N 48°39' W 122°30'0 0.0
2017-Sep-20 23:25N 48°39' W 122°30'1 1.4
2017-Sep-20 23:00N 48°39' W 122°30'0 0.0
2017-Sep-20 22:30N 48°39' W 122°30'0 0.0
2017-Sep-20 21:59N 48°39' W 122°30'0 0.8
2017-Sep-20 21:30N 48°39' W 122°30'3 5.3
2017-Sep-20 21:00N 48°38' W 122°34'3 5.6
2017-Sep-20 20:30N 48°37' W 122°38'3 5.2
2017-Sep-20 20:00N 48°37' W 122°42'3 5.0
2017-Sep-20 19:30N 48°36' W 122°46'3 5.8
2017-Sep-20 19:00N 48°35' W 122°50'3 5.1
2017-Sep-20 18:30N 48°35' W 122°53'1 2.5
2017-Sep-20 18:00N 48°34' W 122°55'2 4.9
2017-Sep-20 17:30N 48°32' W 122°58'2 3.7
2017-Sep-20 17:00N 48°32' W 123°01'0 0.2
2017-Sep-20 16:29N 48°32' W 123°01'0 0.0
2017-Sep-20 15:50N 48°32' W 123°01'0 0.0
2017-Sep-20 15:29N 48°32' W 123°01'0 0.0
2017-Sep-20 14:59N 48°32' W 123°01'0 0.0
2017-Sep-20 13:59N 48°32' W 123°01'0 0.0
2017-Sep-20 13:29N 48°32' W 123°01'0 0.0
2017-Sep-20 12:59N 48°32' W 123°01'0 0.0
2017-Sep-20 12:26N 48°32' W 123°01'0 0.0
2017-Sep-20 11:56N 48°32' W 123°01'0 0.0
2017-Sep-20 11:29N 48°32' W 123°01'0 0.0
2017-Sep-20 10:56N 48°32' W 123°01'0 0.0
2017-Sep-20 10:26N 48°32' W 123°01'0 0.0
2017-Sep-20 09:59N 48°32' W 123°01'0 0.0
2017-Sep-20 09:29N 48°32' W 123°01'0 0.0
2017-Sep-20 08:59N 48°32' W 123°01'0 0.0
2017-Sep-20 08:29N 48°32' W 123°01'0 0.0
2017-Sep-20 07:59N 48°32' W 123°01'0 0.0
2017-Sep-20 07:29N 48°32' W 123°01'0 0.0
2017-Sep-20 06:59N 48°32' W 123°01'0 0.0
2017-Sep-20 06:29N 48°32' W 123°01'0 0.0
2017-Sep-20 05:56N 48°32' W 123°01'0 0.0
2017-Sep-20 05:29N 48°32' W 123°01'0 0.0
2017-Sep-20 04:59N 48°32' W 123°01'0 0.0
2017-Sep-20 04:29N 48°32' W 123°01'0 0.0
2017-Sep-20 03:59N 48°32' W 123°01'0 0.0
2017-Sep-20 03:30N 48°32' W 123°01'3 6.2
2017-Sep-20 03:00N 48°35' W 123°00'0 0.3
2017-Sep-20 02:23N 48°35' W 123°00'0 0.0
2017-Sep-20 01:41N 48°35' W 123°00'0 0.0
2017-Sep-20 01:23N 48°35' W 123°00'0 0.0
2017-Sep-20 00:41N 48°35' W 123°00'0 0.0
2017-Sep-20 00:14N 48°35' W 123°00'0 0.0
2017-Sep-19 22:50N 48°35' W 123°00'0 0.1
2017-Sep-19 22:07N 48°35' W 123°00'0 0.1
2017-Sep-19 22:00N 48°35' W 123°00'0 0.0
2017-Sep-19 21:30N 48°35' W 123°00'0 0.1
2017-Sep-19 21:00N 48°35' W 123°00'0 0.0
2017-Sep-19 20:30N 48°35' W 123°00'1 2.0
2017-Sep-19 20:00N 48°34' W 123°01'2 5.0
2017-Sep-19 19:30N 48°32' W 122°59'0 0.3
2017-Sep-19 18:58N 48°32' W 122°59'0 0.8
2017-Sep-19 18:30N 48°32' W 122°59'1 2.4
2017-Sep-19 18:00N 48°32' W 123°01'0 0.0
2017-Sep-19 17:29N 48°32' W 123°01'0 0.0
2017-Sep-19 16:59N 48°32' W 123°01'0 0.0
2017-Sep-19 16:29N 48°32' W 123°01'0 0.0
2017-Sep-19 15:59N 48°32' W 123°01'0 0.0
2017-Sep-19 15:29N 48°32' W 123°01'0 0.0
2017-Sep-19 14:59N 48°32' W 123°01'0 0.0
2017-Sep-19 14:26N 48°32' W 123°01'0 0.0
2017-Sep-19 13:59N 48°32' W 123°01'0 0.0
2017-Sep-19 13:26N 48°32' W 123°01'0 0.0
2017-Sep-19 12:59N 48°32' W 123°01'0 0.0
2017-Sep-19 12:29N 48°32' W 123°01'0 0.0
2017-Sep-19 11:56N 48°32' W 123°01'0 0.0
2017-Sep-19 11:29N 48°32' W 123°01'0 0.0
2017-Sep-19 10:59N 48°32' W 123°01'0 0.0
2017-Sep-19 10:29N 48°32' W 123°01'0 0.0
2017-Sep-19 09:59N 48°32' W 123°01'0 0.0
2017-Sep-19 09:29N 48°32' W 123°01'0 0.0
2017-Sep-19 08:53N 48°32' W 123°01'0 0.0
2017-Sep-19 08:29N 48°32' W 123°01'0 0.0
2017-Sep-19 07:59N 48°32' W 123°01'0 0.0
2017-Sep-19 07:29N 48°32' W 123°01'0 0.0
2017-Sep-19 06:59N 48°32' W 123°01'0 0.0
2017-Sep-19 06:29N 48°32' W 123°01'0 0.0
2017-Sep-19 05:59N 48°32' W 123°01'0 0.0
2017-Sep-18 18:10N 48°32' W 123°01'1 5.3
2017-Sep-18 18:00N 48°33' W 122°59'4 8.0
2017-Sep-18 17:30N 48°29' W 122°58'3013.4
2017-Sep-18 15:17N 48°02' W 122°38'516.6
2017-Sep-18 15:00N 47°58' W 122°34'714.0
2017-Sep-18 14:31N 47°53' W 122°28'713.8
2017-Sep-18 14:01N 47°46' W 122°26'510.1
2017-Sep-18 13:31N 47°41' W 122°24'0 0.1
2017-Sep-18 12:58N 47°41' W 122°24'0 0.0
2017-Sep-18 12:28N 47°41' W 122°24'0 0.0
2017-Sep-18 11:58N 47°41' W 122°24'0 0.0
2017-Sep-18 11:28N 47°41' W 122°24'0 0.0
2017-Sep-18 10:58N 47°41' W 122°24'0 0.0
2017-Sep-18 10:28N 47°41' W 122°24'0 0.0
2017-Sep-18 09:58N 47°41' W 122°24'0 0.0
2017-Sep-18 09:28N 47°41' W 122°24'0 0.0
2017-Sep-18 08:58N 47°41' W 122°24'0 0.0
2017-Sep-18 08:28N 47°41' W 122°24'0 0.0
2017-Sep-18 07:58N 47°41' W 122°24'0 0.0
2017-Sep-18 07:28N 47°41' W 122°24'0 0.0
2017-Sep-18 06:58N 47°41' W 122°24'0 0.0
2017-Sep-18 06:28N 47°41' W 122°24'0 0.0
2017-Sep-18 05:58N 47°41' W 122°24'0 0.0
2017-Sep-18 05:28N 47°41' W 122°24'0 0.0
2017-Sep-18 04:58N 47°41' W 122°24'0 0.0
2017-Sep-18 04:28N 47°41' W 122°24'0 0.0
2017-Sep-18 03:58N 47°41' W 122°24'0 0.0
2017-Sep-18 03:28N 47°41' W 122°24'0 0.0
2017-Sep-18 02:58N 47°41' W 122°24'0 0.0
2017-Sep-18 02:28N 47°41' W 122°24'0 0.0
2017-Sep-18 01:58N 47°41' W 122°24'0 0.0
2017-Sep-18 01:28N 47°41' W 122°24'0 0.0
2017-Sep-18 00:58N 47°41' W 122°24'0 0.0
2017-Sep-18 00:28N 47°41' W 122°24'0 0.0
2017-Sep-17 23:58N 47°41' W 122°24'0 0.0
2017-Sep-17 23:28N 47°41' W 122°24'0 0.0
2017-Sep-17 22:58N 47°41' W 122°24'0 0.0
2017-Sep-17 22:28N 47°41' W 122°24'0 0.0
2017-Sep-17 21:58N 47°41' W 122°24'0 0.0
2017-Sep-17 21:29N 47°41' W 122°24'0 0.0
2017-Sep-17 20:58N 47°41' W 122°24'0 0.0
2017-Sep-17 20:28N 47°41' W 122°24'0 0.0
2017-Sep-17 19:58N 47°41' W 122°24'0 0.0
2017-Sep-17 19:28N 47°41' W 122°24'0 0.0
2017-Sep-17 18:58N 47°41' W 122°24'0 0.0
2017-Sep-17 18:28N 47°41' W 122°24'0 0.0
2017-Sep-17 17:58N 47°41' W 122°24'0 0.0
2017-Sep-17 17:28N 47°41' W 122°24'0 0.0
2017-Sep-17 16:58N 47°41' W 122°24'0 0.0
2017-Sep-17 16:28N 47°41' W 122°24'0 0.0
2017-Sep-17 15:58N 47°41' W 122°24'0 0.0
2017-Sep-17 15:28N 47°41' W 122°24'0 0.0
2017-Sep-17 14:58N 47°41' W 122°24'0 0.0
2017-Sep-17 14:28N 47°41' W 122°24'0 0.0
2017-Sep-17 13:58N 47°41' W 122°24'0 0.0
2017-Sep-17 13:28N 47°41' W 122°24'0 0.0
2017-Sep-17 12:58N 47°41' W 122°24'0 0.0
2017-Sep-17 12:28N 47°41' W 122°24'0 0.0
2017-Sep-17 11:58N 47°41' W 122°24'0 0.0
2017-Sep-17 11:28N 47°41' W 122°24'0 0.0
2017-Sep-17 10:58N 47°41' W 122°24'0 0.0
2017-Sep-17 10:28N 47°41' W 122°24'0 0.0
2017-Sep-17 09:58N 47°41' W 122°24'0 0.0
2017-Sep-17 09:28N 47°41' W 122°24'0 0.0
2017-Sep-17 08:58N 47°41' W 122°24'0 0.0
2017-Sep-17 08:28N 47°41' W 122°24'0 0.0
2017-Sep-17 07:58N 47°41' W 122°24'0 0.0
2017-Sep-17 07:28N 47°41' W 122°24'0 0.0
2017-Sep-17 06:58N 47°41' W 122°24'0 0.0
2017-Sep-17 06:29N 47°41' W 122°24'0 0.0
2017-Sep-17 05:58N 47°41' W 122°24'0 0.0
2017-Sep-17 05:28N 47°41' W 122°24'0 0.0
2017-Sep-17 04:58N 47°41' W 122°24'0 0.0
2017-Sep-17 04:28N 47°41' W 122°24'0 0.0
2017-Sep-17 03:58N 47°41' W 122°24'0 0.0
2017-Sep-17 03:28N 47°41' W 122°24'0 0.0
2017-Sep-17 02:58N 47°41' W 122°24'0 0.0
2017-Sep-17 02:28N 47°41' W 122°24'0 0.0
2017-Sep-17 01:58N 47°41' W 122°24'0 0.0
2017-Sep-17 01:28N 47°41' W 122°24'0 0.0
2017-Sep-17 00:58N 47°41' W 122°24'0 0.0
2017-Sep-17 00:28N 47°41' W 122°24'0 0.0
2017-Sep-16 23:58N 47°41' W 122°24'0 0.0
2017-Sep-16 23:28N 47°41' W 122°24'0 0.0
2017-Sep-16 22:58N 47°41' W 122°24'0 0.0
2017-Sep-16 22:28N 47°41' W 122°24'0 0.0
2017-Sep-16 21:58N 47°41' W 122°24'0 0.0
2017-Sep-16 21:28N 47°41' W 122°24'0 0.0
2017-Sep-16 20:58N 47°41' W 122°24'0 0.0
2017-Sep-16 20:28N 47°41' W 122°24'0 0.0
2017-Sep-16 19:58N 47°41' W 122°24'0 0.0
2017-Sep-16 19:28N 47°41' W 122°24'0 0.0
2017-Sep-16 18:55N 47°41' W 122°24'0 0.0
2017-Sep-16 18:28N 47°41' W 122°24'0 0.0
2017-Sep-16 17:58N 47°41' W 122°24'0 0.0
2017-Sep-16 17:28N 47°41' W 122°24'0 0.0
2017-Sep-16 16:58N 47°41' W 122°24'0 0.0
2017-Sep-16 16:28N 47°41' W 122°24'0 0.1
2017-Sep-16 15:58N 47°41' W 122°24'0 0.1
2017-Sep-16 15:28N 47°41' W 122°24'0 0.0
2017-Sep-16 14:58N 47°41' W 122°24'0 0.0
2017-Sep-16 14:28N 47°41' W 122°24'0 0.0
2017-Sep-16 13:58N 47°41' W 122°24'0 0.0
2017-Sep-16 13:28N 47°41' W 122°24'0 0.0
2017-Sep-16 12:58N 47°41' W 122°24'0 0.0
2017-Sep-16 12:28N 47°41' W 122°24'0 0.0
2017-Sep-16 11:55N 47°41' W 122°24'0 0.0
2017-Sep-16 11:28N 47°41' W 122°24'0 0.0
2017-Sep-16 10:58N 47°41' W 122°24'0 0.0
2017-Sep-16 10:28N 47°41' W 122°24'0 0.0
2017-Sep-16 09:58N 47°41' W 122°24'0 0.0
2017-Sep-16 09:28N 47°41' W 122°24'0 0.0
2017-Sep-16 08:58N 47°41' W 122°24'0 0.0
2017-Sep-16 08:28N 47°41' W 122°24'0 0.0
2017-Sep-16 07:58N 47°41' W 122°24'0 0.0
2017-Sep-16 07:28N 47°41' W 122°24'0 0.0
2017-Sep-16 06:58N 47°41' W 122°24'0 0.0
2017-Sep-16 06:28N 47°41' W 122°24'0 0.0
2017-Sep-16 05:58N 47°41' W 122°24'0 0.0
2017-Sep-16 05:28N 47°41' W 122°24'0 0.0
2017-Sep-16 04:58N 47°41' W 122°24'0 0.0
2017-Sep-16 04:28N 47°41' W 122°24'0 0.0
2017-Sep-16 03:58N 47°41' W 122°24'0 0.0
2017-Sep-16 03:28N 47°41' W 122°24'0 0.0
2017-Sep-16 02:58N 47°41' W 122°24'0 0.0
2017-Sep-16 02:28N 47°41' W 122°24'0 0.0
2017-Sep-16 01:58N 47°41' W 122°24'0 0.0
2017-Sep-16 01:28N 47°41' W 122°24'0 0.0
2017-Sep-16 00:52N 47°41' W 122°24'0 0.0
2017-Sep-16 00:28N 47°41' W 122°24'0 0.0
2017-Sep-15 23:58N 47°41' W 122°24'0 0.0
2017-Sep-15 23:28N 47°41' W 122°24'0 0.0
2017-Sep-15 22:58N 47°41' W 122°24'0 0.0
2017-Sep-15 22:28N 47°41' W 122°24'0 0.0
2017-Sep-15 21:58N 47°41' W 122°24'0 0.0
2017-Sep-15 21:28N 47°41' W 122°24'0 0.1
2017-Sep-15 20:58N 47°41' W 122°24'0 0.0
2017-Sep-15 20:28N 47°41' W 122°24'0 0.0
2017-Sep-15 19:58N 47°41' W 122°24'0 0.0
2017-Sep-15 19:28N 47°41' W 122°24'0 0.0
2017-Sep-15 18:58N 47°41' W 122°24'0 0.0
2017-Sep-15 18:28N 47°41' W 122°24'0 0.0
2017-Sep-15 17:58N 47°41' W 122°24'0 0.0
2017-Sep-15 17:25N 47°41' W 122°24'0 0.0
2017-Sep-15 16:58N 47°41' W 122°24'0 0.0
2017-Sep-15 16:28N 47°41' W 122°24'0 0.0
2017-Sep-15 15:58N 47°41' W 122°24'0 0.0
2017-Sep-15 15:28N 47°41' W 122°24'0 0.0
2017-Sep-15 14:58N 47°41' W 122°24'0 0.1
2017-Sep-15 14:28N 47°41' W 122°24'0 0.0
2017-Sep-15 13:58N 47°41' W 122°24'0 0.0
2017-Sep-15 13:28N 47°41' W 122°24'0 0.0
2017-Sep-15 12:58N 47°41' W 122°24'0 0.0
2017-Sep-15 12:28N 47°41' W 122°24'0 0.0
2017-Sep-15 11:58N 47°41' W 122°24'0 0.0
2017-Sep-15 11:28N 47°41' W 122°24'0 0.0
2017-Sep-15 10:58N 47°41' W 122°24'0 0.0
2017-Sep-15 10:28N 47°41' W 122°24'0 0.0
2017-Sep-15 09:58N 47°41' W 122°24'0 0.0
2017-Sep-15 09:28N 47°41' W 122°24'0 0.0
2017-Sep-15 08:58N 47°41' W 122°24'0 0.0
2017-Sep-15 08:28N 47°41' W 122°24'0 0.0
2017-Sep-15 07:58N 47°41' W 122°24'0 0.0
2017-Sep-15 07:28N 47°41' W 122°24'0 0.0
2017-Sep-15 06:58N 47°41' W 122°24'0 0.0
2017-Sep-15 06:28N 47°41' W 122°24'0 0.0
2017-Sep-15 05:58N 47°41' W 122°24'0 0.0
2017-Sep-15 05:28N 47°41' W 122°24'0 0.0
2017-Sep-15 04:58N 47°41' W 122°24'0 0.0
2017-Sep-15 04:28N 47°41' W 122°24'0 0.0
2017-Sep-15 03:58N 47°41' W 122°24'0 0.0
2017-Sep-15 03:28N 47°41' W 122°24'0 0.0
2017-Sep-15 02:58N 47°41' W 122°24'0 0.0
2017-Sep-15 02:28N 47°41' W 122°24'0 0.0
2017-Sep-15 01:58N 47°41' W 122°24'0 0.0
2017-Sep-15 01:28N 47°41' W 122°24'0 0.0
2017-Sep-15 00:58N 47°41' W 122°24'0 0.0
2017-Sep-15 00:28N 47°41' W 122°24'0 0.0
2017-Sep-14 23:58N 47°41' W 122°24'0 0.0
2017-Sep-14 23:28N 47°41' W 122°24'0 0.0
2017-Sep-14 22:58N 47°41' W 122°24'0 0.0
2017-Sep-14 22:28N 47°41' W 122°24'0 0.0
2017-Sep-14 17:58N 47°41' W 122°24'0 0.0
2017-Sep-14 17:22N 47°41' W 122°24'0 0.0
2017-Sep-14 16:58N 47°41' W 122°24'0 0.0
2017-Sep-14 16:28N 47°41' W 122°24'0 0.0
2017-Sep-14 15:58N 47°41' W 122°24'0 0.0
2017-Sep-14 15:28N 47°41' W 122°24'0 0.0
2017-Sep-14 14:58N 47°41' W 122°24'0 0.0
2017-Sep-14 14:28N 47°41' W 122°24'0 0.0
2017-Sep-14 13:58N 47°41' W 122°24'0 0.0
2017-Sep-14 13:28N 47°41' W 122°24'0 0.0
2017-Sep-14 12:58N 47°41' W 122°24'0 0.0
2017-Sep-14 12:28N 47°41' W 122°24'0 0.0
2017-Sep-14 11:58N 47°41' W 122°24'0 0.0
2017-Sep-14 11:28N 47°41' W 122°24'0 0.0
2017-Sep-14 10:55N 47°41' W 122°24'0 0.0
2017-Sep-14 10:28N 47°41' W 122°24'0 0.0
2017-Sep-14 09:58N 47°41' W 122°24'0 0.0
2017-Sep-14 09:28N 47°41' W 122°24'0 0.0
2017-Sep-14 08:58N 47°41' W 122°24'0 0.0
2017-Sep-14 08:28N 47°41' W 122°24'0 0.0
2017-Sep-14 07:58N 47°41' W 122°24'0 0.0
2017-Sep-14 07:28N 47°41' W 122°24'0 0.0
2017-Sep-14 06:58N 47°41' W 122°24'0 0.0
2017-Sep-14 06:28N 47°41' W 122°24'0 0.0
2017-Sep-14 05:58N 47°41' W 122°24'0 0.0
2017-Sep-14 05:28N 47°41' W 122°24'0 0.0
2017-Sep-14 04:58N 47°41' W 122°24'0 0.0
2017-Sep-14 04:28N 47°41' W 122°24'0 0.0
2017-Sep-14 03:58N 47°41' W 122°24'0 0.0
2017-Sep-14 03:28N 47°41' W 122°24'0 0.0
2017-Sep-14 02:58N 47°41' W 122°24'0 0.0
2017-Sep-14 02:28N 47°41' W 122°24'0 0.0
2017-Sep-14 01:58N 47°41' W 122°24'0 0.0
2017-Sep-14 01:25N 47°41' W 122°24'0 0.0
2017-Sep-14 00:58N 47°41' W 122°24'0 0.1
2017-Sep-14 00:28N 47°41' W 122°24'0 0.1
2017-Sep-13 23:58N 47°41' W 122°24'0 0.0
2017-Sep-13 23:28N 47°41' W 122°24'0 0.0
2017-Sep-13 22:58N 47°41' W 122°24'0 0.0
2017-Sep-13 22:28N 47°41' W 122°24'0 0.0
2017-Sep-13 21:58N 47°41' W 122°24'0 0.0
2017-Sep-13 21:28N 47°41' W 122°24'0 0.0
2017-Sep-13 20:58N 47°41' W 122°24'0 0.0
2017-Sep-13 20:28N 47°41' W 122°24'0 0.0
2017-Sep-13 19:58N 47°41' W 122°24'0 0.0
2017-Sep-13 19:28N 47°41' W 122°24'0 0.0
2017-Sep-13 18:52N 47°41' W 122°24'0 0.0
2017-Sep-13 18:28N 47°41' W 122°24'0 0.0
2017-Sep-13 17:58N 47°41' W 122°24'0 0.0
2017-Sep-13 17:25N 47°41' W 122°24'0 0.0
2017-Sep-13 16:58N 47°41' W 122°24'0 0.0
2017-Sep-13 16:28N 47°41' W 122°24'0 0.0
2017-Sep-13 15:58N 47°41' W 122°24'0 0.0
2017-Sep-13 15:28N 47°41' W 122°24'0 0.0
2017-Sep-13 14:58N 47°41' W 122°24'0 0.0
2017-Sep-13 14:28N 47°41' W 122°24'0 0.0
2017-Sep-13 13:58N 47°41' W 122°24'0 0.0
2017-Sep-13 13:28N 47°41' W 122°24'0 0.0
2017-Sep-13 12:58N 47°41' W 122°24'0 0.0
2017-Sep-13 12:28N 47°41' W 122°24'0 0.0
2017-Sep-13 11:58N 47°41' W 122°24'0 0.0
2017-Sep-13 11:28N 47°41' W 122°24'0 0.0
2017-Sep-13 10:58N 47°41' W 122°24'0 0.0
2017-Sep-13 10:28N 47°41' W 122°24'0 0.0
2017-Sep-13 09:58N 47°41' W 122°24'0 0.0
2017-Sep-13 09:28N 47°41' W 122°24'0 0.0
2017-Sep-13 08:58N 47°41' W 122°24'0 0.0
2017-Sep-13 08:28N 47°41' W 122°24'0 0.0
2017-Sep-13 07:58N 47°41' W 122°24'0 0.0
2017-Sep-13 07:28N 47°41' W 122°24'0 0.0
2017-Sep-13 06:58N 47°41' W 122°24'0 0.0
2017-Sep-13 06:28N 47°41' W 122°24'0 0.0
2017-Sep-13 05:58N 47°41' W 122°24'0 0.0
2017-Sep-13 05:28N 47°41' W 122°24'0 0.0
2017-Sep-13 04:58N 47°41' W 122°24'0 0.0
2017-Sep-13 04:25N 47°41' W 122°24'0 0.0
2017-Sep-13 03:58N 47°41' W 122°24'0 0.0
2017-Sep-13 03:28N 47°41' W 122°24'0 0.0
2017-Sep-13 02:58N 47°41' W 122°24'0 0.0
2017-Sep-13 02:28N 47°41' W 122°24'0 0.0
2017-Sep-13 01:58N 47°41' W 122°24'0 0.0
2017-Sep-13 01:28N 47°41' W 122°24'0 0.0
2017-Sep-13 00:58N 47°41' W 122°24'0 0.0
2017-Sep-13 00:28N 47°41' W 122°24'0 0.0
2017-Sep-12 23:58N 47°41' W 122°24'0 0.0
2017-Sep-12 23:28N 47°41' W 122°24'0 0.0
2017-Sep-12 22:58N 47°41' W 122°24'0 0.0
2017-Sep-12 22:28N 47°41' W 122°24'0 0.0
2017-Sep-12 21:58N 47°41' W 122°24'0 0.0
2017-Sep-12 21:28N 47°41' W 122°24'0 0.0
2017-Sep-12 20:58N 47°41' W 122°24'0 0.0
2017-Sep-12 20:28N 47°41' W 122°24'0 0.0
2017-Sep-12 19:58N 47°41' W 122°24'0 0.0
2017-Sep-12 19:28N 47°41' W 122°24'0 0.0
2017-Sep-12 18:58N 47°41' W 122°24'0 0.0
2017-Sep-12 18:28N 47°41' W 122°24'0 0.0
2017-Sep-12 17:58N 47°41' W 122°24'0 0.0
2017-Sep-12 17:25N 47°41' W 122°24'0 0.0
2017-Sep-12 16:55N 47°41' W 122°24'0 0.0
2017-Sep-12 16:28N 47°41' W 122°24'0 0.0
2017-Sep-12 15:58N 47°41' W 122°24'0 0.0
2017-Sep-12 15:28N 47°41' W 122°24'0 0.0
2017-Sep-12 14:58N 47°41' W 122°24'0 0.0
2017-Sep-12 14:28N 47°41' W 122°24'0 0.0
2017-Sep-12 13:58N 47°41' W 122°24'0 0.0
2017-Sep-12 13:28N 47°41' W 122°24'0 0.0
2017-Sep-12 12:58N 47°41' W 122°24'0 0.0
2017-Sep-12 12:28N 47°41' W 122°24'0 0.0
2017-Sep-12 11:58N 47°41' W 122°24'0 0.0
2017-Sep-12 11:28N 47°41' W 122°24'0 0.0
2017-Sep-12 10:58N 47°41' W 122°24'0 0.0
2017-Sep-12 10:28N 47°41' W 122°24'0 0.0
2017-Sep-12 09:58N 47°41' W 122°24'0 0.0
2017-Sep-12 09:28N 47°41' W 122°24'0 0.0
2017-Sep-12 08:58N 47°41' W 122°24'0 0.0
2017-Sep-12 08:28N 47°41' W 122°24'0 0.0
2017-Sep-12 07:58N 47°41' W 122°24'0 0.0
2017-Sep-12 07:28N 47°41' W 122°24'0 0.0
2017-Sep-12 06:58N 47°41' W 122°24'0 0.0
2017-Sep-12 06:25N 47°41' W 122°24'0 0.0
2017-Sep-12 05:58N 47°41' W 122°24'0 0.0
2017-Sep-12 05:28N 47°41' W 122°24'0 0.0
2017-Sep-12 04:58N 47°41' W 122°24'0 0.0
2017-Sep-12 04:28N 47°41' W 122°24'0 0.0
2017-Sep-12 03:55N 47°41' W 122°24'0 0.0
2017-Sep-12 03:28N 47°41' W 122°24'0 0.0
2017-Sep-12 02:58N 47°41' W 122°24'0 0.0
2017-Sep-12 02:28N 47°41' W 122°24'0 0.0
2017-Sep-12 01:58N 47°41' W 122°24'0 0.0
2017-Sep-12 01:28N 47°41' W 122°24'0 0.1
2017-Sep-12 00:58N 47°41' W 122°24'0 0.1
2017-Sep-12 00:28N 47°41' W 122°24'0 0.0
2017-Sep-11 23:58N 47°41' W 122°24'0 0.0
2017-Sep-11 23:28N 47°41' W 122°24'0 0.0
2017-Sep-11 22:58N 47°41' W 122°24'0 0.0
2017-Sep-11 22:28N 47°41' W 122°24'0 0.0
2017-Sep-11 21:58N 47°41' W 122°24'0 0.0
2017-Sep-11 21:28N 47°41' W 122°24'0 0.0
2017-Sep-11 20:58N 47°41' W 122°24'0 0.0
2017-Sep-11 20:28N 47°41' W 122°24'0 0.0
2017-Sep-11 19:58N 47°41' W 122°24'0 0.0
2017-Sep-11 19:28N 47°41' W 122°24'0 0.0
2017-Sep-11 18:58N 47°41' W 122°24'0 0.0
2017-Sep-11 18:28N 47°41' W 122°24'0 0.0
2017-Sep-11 17:58N 47°41' W 122°24'0 0.0
2017-Sep-11 17:28N 47°41' W 122°24'0 0.0
2017-Sep-11 16:58N 47°41' W 122°24'0 0.0
2017-Sep-11 16:28N 47°41' W 122°24'0 0.0
2017-Sep-11 15:58N 47°41' W 122°24'0 0.0
2017-Sep-11 15:28N 47°41' W 122°24'0 0.0
2017-Sep-11 14:58N 47°41' W 122°24'0 0.0
2017-Sep-11 14:28N 47°41' W 122°24'0 0.0
2017-Sep-11 13:58N 47°41' W 122°24'  

Dump ship's entire track history